Skip Navigation Links
NOAA logo - Click to go to the NOAA homepage
NOAA's National Weather Service
Alaska Aviation Weather Unit
  NWS logo - Click to go to the NWS homepage
Left Navbar Graphic     19 AKDT = 03 GMT

   
NOAA is celebrating 200 years of science, service, and stewardship. Visit the NOAA 200th celebration Web site to learn more.
USA.gov is the U.S. Government's official Web portal to all Federal, state and local government Web resources and services.
Facebook
NWS on Facebook

Important Change Regarding the AAWU Web Presence

 

Over the last several months, the AAWU has been working to navigate its webpages to a nationally supported server. Security, as well as other needs, have necessitated the change.  We have been given an extension for the site changeover while we diligently work at addressing feedback received. As of July 14, 2017, aawu.arh.noaa.gov will be discontinued. The new AAWU web address is weather.gov/aawu. It is now live and will run in-parallel with the old site until it is discontinued on July 14, 2017. Please continue to send any feedback or questions regarding the new webpages to nws.ar.aawu.webauthors@noaa.gov.  Thank you for your patience during this time of transition.
AAWU Home :: Display TAF Add Bookmark
METAR PAIK 282156Z AUTO 14008KT 10SM BKN043 OVC050 16/08 A2977 RMK AO2
     SLPNO T01610083=

METAR PAIK 282256Z AUTO 15010G17KT 8SM SCT044 OVC055 17/08 A2978 RMK AO2
     SLPNO T01720078=

METAR PAIK 282356Z AUTO 16010G16KT 10SM SCT043 OVC055 17/08 A2978 RMK
     AO2 SLPNO 6//// T01670078 51007=

METAR PAIK 290056Z AUTO 15014G21KT 9SM OVC055 17/07 A2979 RMK AO2 SLPNO
     T01670072=

METAR PAIK 290256Z AUTO 15008G14KT 10SM BKN045 OVC050 16/08 A2980 RMK
     AO2 SLPNO T01610078 53007=


NOAA's National Weather Service
Alaska Aviation Weather Unit
6930 Sand Lake Road
Anchorage, AK 99502-1845
Disclaimer
Credits
Glossary
Privacy Policy
About Us
Career Opportunities
Contact AAWU Internet Services Site last modified: April, 17th 2012